KFDK/FDK METAR and TAF weather

Enter ICAO airport designator
Station Type Date Time Source
KFDK METAR 2021/02/27 03:55 UTC NOAA

KFDK 270355Z AUTO 00000KT 4SM -RA OVC008 02/01 A3039 RMK AO2 P0003


Station Type Date Time Source
KFDK Decoded METAR 2021/02/27 03:55 UTC NOAA

Frederick, Frederick Municipal Airport, MD, United States (KFDK) 39-25-03N 077-22-28W
Feb 26, 2021 - 10:55 PM EST / 2021.02.27 0355 UTC
Wind: Calm:0
Visibility: 4 mile(s):0
Sky conditions: overcast
Weather: light rain
Precipitation last hour: 0.03 inches
Temperature: 35 F (2 C)
Dew Point: 33 F (1 C)
Relative Humidity: 93%
Pressure (altimeter): 30.39 in. Hg (1029 hPa)
ob: KFDK 270355Z AUTO 00000KT 4SM -RA OVC008 02/01 A3039 RMK AO2 P0003
cycle: 4

Station Type Date Time Source
KFDK TAF UTC NOAA

Error!

Example: see airport list